Time;durP1;ratioP1;P1;durP2;ratioP2;P2;SDS_P1;SDS_P2;PMS_P1;PMS_P2;Temp;Humidity;BMP_temperature;BMP_pressure;BME280_temperature;BME280_humidity;BME280_pressure;Samples;Min_cycle;Max_cycle;Signal;HPM_P1;HPM_P2
2021/10/08 00:00:47;;;;;;;33.23;12.67;;;;;;;6.69;100.00;102841.66;2106115;28;20027;-65
2021/10/08 00:01:47;;;;;;;43.90;12.17;;;;;;;6.67;100.00;102840.78;2107036;28;20099;-65
2021/10/08 00:02:47;;;;;;;37.97;13.30;;;;;;;6.67;100.00;102845.97;2107550;28;20028;-64
2021/10/08 00:03:47;;;;;;;50.70;14.93;;;;;;;6.67;100.00;102853.75;2106840;28;20046;-64
2021/10/08 00:04:48;;;;;;;37.00;13.47;;;;;;;6.66;100.00;102841.66;2106882;28;20020;-64
2021/10/08 00:05:48;;;;;;;67.80;16.50;;;;;;;6.64;100.00;102845.94;2107488;28;20019;-65
2021/10/08 00:06:49;;;;;;;37.53;14.67;;;;;;;6.63;100.00;102845.94;2107514;28;20045;-65
2021/10/08 00:07:50;;;;;;;32.15;13.75;;;;;;;6.60;100.00;102844.19;2107384;28;20032;-65
2021/10/08 00:08:50;;;;;;;34.23;13.20;;;;;;;6.60;100.00;102846.78;2107413;28;20020;-64
2021/10/08 00:09:50;;;;;;;40.57;12.87;;;;;;;6.59;100.00;102850.25;2107363;28;20050;-64
2021/10/08 00:10:51;;;;;;;50.27;14.77;;;;;;;6.57;100.00;102851.97;2107375;28;20496;-63
2021/10/08 00:11:51;;;;;;;43.00;13.50;;;;;;;6.56;100.00;102852.81;2107451;28;20084;-64
2021/10/08 00:12:51;;;;;;;37.37;12.83;;;;;;;6.54;100.00;102851.94;2107270;28;20086;-64
2021/10/08 00:13:53;;;;;;;38.67;13.47;;;;;;;6.54;100.00;102851.94;2107388;28;20027;-65
2021/10/08 00:14:53;;;;;;;26.83;12.32;;;;;;;6.52;100.00;102845.88;2107266;28;20381;-66
2021/10/08 00:15:53;;;;;;;33.00;13.67;;;;;;;6.53;100.00;102848.47;2107216;28;20034;-65
2021/10/08 00:16:54;;;;;;;29.00;13.10;;;;;;;6.53;100.00;102842.41;2106607;28;20057;-64
2021/10/08 00:17:54;;;;;;;28.90;11.80;;;;;;;6.51;100.00;102849.31;2106516;28;20078;-65
2021/10/08 00:18:54;;;;;;;26.27;13.07;;;;;;;6.51;100.00;102846.72;2107041;28;20026;-65
2021/10/08 00:19:55;;;;;;;36.37;13.60;;;;;;;6.50;100.00;102850.19;2107287;28;20081;-65
2021/10/08 00:20:55;;;;;;;32.77;13.87;;;;;;;6.50;100.00;102847.59;2107288;28;20051;-65
2021/10/08 00:21:55;;;;;;;31.33;13.47;;;;;;;6.49;100.00;102843.25;2107234;28;20024;-64
2021/10/08 00:22:56;;;;;;;35.30;12.77;;;;;;;6.47;100.00;102851.03;2106866;28;20028;-63
2021/10/08 00:23:56;;;;;;;33.40;13.40;;;;;;;6.47;100.00;102847.56;2106799;28;20498;-64
2021/10/08 00:24:56;;;;;;;51.83;14.23;;;;;;;6.46;100.00;102851.03;2107054;28;20028;-66
2021/10/08 00:25:57;;;;;;;37.80;13.57;;;;;;;6.46;100.00;102851.03;2107087;28;20039;-65
2021/10/08 00:26:57;;;;;;;44.85;14.32;;;;;;;6.43;100.00;102849.25;2106509;28;20028;-64
2021/10/08 00:27:58;;;;;;;48.70;14.20;;;;;;;6.45;100.00;102852.75;2106728;28;20035;-64
2021/10/08 00:28:58;;;;;;;24.77;12.07;;;;;;;6.45;100.00;102850.16;2107329;28;20032;-64
2021/10/08 00:29:58;;;;;;;36.63;12.67;;;;;;;6.48;100.00;102857.97;2107296;28;20060;-65
2021/10/08 00:31:00;;;;;;;36.23;13.03;;;;;;;6.50;100.00;102855.38;2107259;28;20032;-64
2021/10/08 00:32:00;;;;;;;35.33;12.27;;;;;;;6.51;100.00;102851.91;2106681;28;20020;-64
2021/10/08 00:33:01;;;;;;;43.57;13.53;;;;;;;6.52;100.00;102858.84;2098209;28;20020;-64
2021/10/08 00:34:01;;;;;;;38.87;12.07;;;;;;;6.53;100.00;102856.25;2106548;28;20381;-64
2021/10/08 00:35:02;;;;;;;63.78;13.60;;;;;;;6.53;100.00;102861.44;2107186;28;20020;-64
2021/10/08 00:36:02;;;;;;;47.45;13.63;;;;;;;6.54;100.00;102862.31;2107181;28;20031;-64
2021/10/08 00:37:03;;;;;;;48.90;13.67;;;;;;;6.54;100.00;102865.78;2107261;28;20457;-64
2021/10/08 00:38:05;;;;;;;39.50;12.30;;;;;;;6.54;100.00;102857.13;2107226;28;20032;-64
2021/10/08 00:39:05;;;;;;;76.03;16.60;;;;;;;6.52;100.00;102857.13;2107224;28;20028;-64
2021/10/08 00:40:06;;;;;;;70.20;15.80;;;;;;;6.51;100.00;102858.00;2107195;28;20107;-65
2021/10/08 00:41:07;;;;;;;79.47;15.57;;;;;;;6.50;100.00;102860.56;2106603;28;20036;-64
2021/10/08 00:42:08;;;;;;;59.03;13.85;;;;;;;6.50;100.00;102858.81;2106564;28;20055;-64
2021/10/08 00:43:08;;;;;;;48.35;12.77;;;;;;;6.50;100.00;102855.38;2106517;28;20020;-64
2021/10/08 00:44:09;;;;;;;43.40;13.50;;;;;;;6.51;100.00;102857.09;2106326;28;20110;-65
2021/10/08 00:45:09;;;;;;;43.60;12.23;;;;;;;6.51;100.00;102862.28;2098096;28;20031;-64
2021/10/08 00:46:10;;;;;;;64.37;13.97;;;;;;;6.51;100.00;102859.69;2098021;28;20119;-64
2021/10/08 00:47:12;;;;;;;44.53;11.40;;;;;;;6.51;100.00;102859.69;2106557;28;20024;-64
2021/10/08 00:48:12;;;;;;;40.30;12.00;;;;;;;6.51;100.00;102863.19;2107057;28;20086;-65
2021/10/08 00:49:13;;;;;;;45.15;11.98;;;;;;;6.48;100.00;102857.97;2107120;28;20384;-65
2021/10/08 00:50:13;;;;;;;61.60;12.10;;;;;;;6.47;100.00;102863.13;2106214;28;20024;-65
2021/10/08 00:51:13;;;;;;;48.03;12.80;;;;;;;6.44;100.00;102866.56;2097979;28;20037;-64
2021/10/08 00:52:13;;;;;;;46.60;13.43;;;;;;;6.44;100.00;102863.97;2105943;28;20087;-65
2021/10/08 00:53:15;;;;;;;40.40;12.70;;;;;;;6.44;100.00;102856.22;2106961;28;20465;-65
2021/10/08 00:54:15;;;;;;;54.92;12.68;;;;;;;6.42;100.00;102863.97;2106582;28;20054;-65
2021/10/08 00:55:15;;;;;;;36.07;12.23;;;;;;;6.38;100.00;102862.22;2106333;28;20011;-65
2021/10/08 00:56:17;;;;;;;48.30;12.57;;;;;;;6.37;100.00;102860.44;2106798;28;20480;-64
2021/10/08 00:57:18;;;;;;;40.42;12.23;;;;;;;6.38;100.00;102866.53;2106512;28;20059;-65
2021/10/08 00:58:20;;;;;;;42.53;12.90;;;;;;;6.35;100.00;102867.38;2106979;28;20020;-65
2021/10/08 00:59:20;;;;;;;40.88;12.57;;;;;;;6.37;100.00;102864.78;2106334;28;20092;-65
2021/10/08 01:00:20;;;;;;;24.30;11.33;;;;;;;6.36;100.00;102863.91;2106392;28;20506;-65
2021/10/08 01:01:21;;;;;;;51.80;12.03;;;;;;;6.36;100.00;102856.13;2107054;28;20016;-64
2021/10/08 01:02:24;;;;;;;26.13;11.40;;;;;;;6.36;100.00;102857.88;2106276;28;20076;-65
2021/10/08 01:03:24;;;;;;;38.30;11.73;;;;;;;6.35;100.00;102857.00;2106131;28;20028;-64
2021/10/08 01:04:24;;;;;;;53.73;13.77;;;;;;;6.34;100.00;102854.38;2106201;28;20022;-64
2021/10/08 01:05:25;;;;;;;30.13;13.00;;;;;;;6.32;100.00;102859.56;2106712;28;20158;-65
2021/10/08 01:06:25;;;;;;;40.57;11.17;;;;;;;6.31;100.00;102856.13;2106731;28;20032;-64
2021/10/08 01:07:25;;;;;;;33.10;11.40;;;;;;;6.30;100.00;102858.69;2106911;28;20019;-64
2021/10/08 01:08:25;;;;;;;48.40;11.57;;;;;;;6.27;100.00;102859.50;2106983;28;20468;-64
2021/10/08 01:09:26;;;;;;;35.57;11.97;;;;;;;6.25;100.00;102861.25;2106940;28;20028;-63
2021/10/08 01:10:26;;;;;;;27.20;11.67;;;;;;;6.24;100.00;102863.81;2106850;28;20063;-64
2021/10/08 01:11:26;;;;;;;22.47;10.33;;;;;;;6.22;100.00;102860.34;2106961;28;20077;-63
2021/10/08 01:12:27;;;;;;;32.30;11.13;;;;;;;6.22;100.00;102865.53;2106104;28;20370;-64
2021/10/08 01:13:27;;;;;;;26.83;10.23;;;;;;;6.21;100.00;102854.28;2106657;28;20032;-65
2021/10/08 01:14:27;;;;;;;22.03;11.03;;;;;;;6.21;100.00;102864.66;2106852;28;20099;-65
2021/10/08 01:15:28;;;;;;;19.37;10.50;;;;;;;6.22;100.00;102855.16;2106838;28;20027;-65
2021/10/08 01:16:28;;;;;;;32.00;12.07;;;;;;;6.19;100.00;102856.00;2106878;28;20023;-65
2021/10/08 01:17:29;;;;;;;29.00;11.60;;;;;;;6.16;100.00;102859.44;2106966;28;20024;-65
2021/10/08 01:18:29;;;;;;;20.73;9.13;;;;;;;6.14;100.00;102858.56;2106735;28;20099;-65
2021/10/08 01:19:29;;;;;;;19.83;9.10;;;;;;;6.12;100.00;102857.66;2106200;28;20090;-65
2021/10/08 01:20:30;;;;;;;39.40;11.93;;;;;;;6.11;100.00;102858.53;2106266;28;20020;-64
2021/10/08 01:21:31;;;;;;;;;;;;;;;6.11;100.00;102863.72;2107325;28;20027;-65
2021/10/08 01:22:31;;;;;;;39.97;13.15;;;;;;;6.09;100.00;102860.22;2106950;28;19908;-64
2021/10/08 01:23:31;;;;;;;58.90;12.57;;;;;;;6.08;100.00;102861.09;2106939;28;20046;-65
2021/10/08 01:24:32;;;;;;;55.63;13.93;;;;;;;6.05;100.00;102859.34;2106929;28;20028;-64
2021/10/08 01:25:34;;;;;;;41.07;12.33;;;;;;;6.02;100.00;102859.28;2106886;28;20458;-65
2021/10/08 01:26:34;;;;;;;56.00;14.52;;;;;;;6.00;100.00;102858.41;2106640;28;20046;-64
2021/10/08 01:27:35;;;;;;;53.47;13.77;;;;;;;5.98;100.00;102854.91;2106916;28;20070;-65
2021/10/08 01:28:35;;;;;;;51.50;13.35;;;;;;;5.98;100.00;102867.00;2106853;28;20020;-65
2021/10/08 01:29:51;;;;;;;45.47;12.13;;;;;;;5.97;100.00;102855.78;2106831;28;20048;-64
2021/10/08 01:30:51;;;;;;;35.72;11.95;;;;;;;5.97;100.00;102860.09;2106769;28;20027;-65
2021/10/08 01:31:52;;;;;;;39.93;11.97;;;;;;;5.95;100.00;102867.84;2106878;28;20028;-64
2021/10/08 01:32:53;;;;;;;37.30;11.40;;;;;;;5.96;100.00;102863.53;2106894;28;20028;-64
2021/10/08 01:33:53;;;;;;;40.42;12.38;;;;;;;5.96;100.00;102858.34;2106648;28;20048;-64
2021/10/08 01:34:53;;;;;;;46.67;11.27;;;;;;;5.93;100.00;102865.22;2106736;28;20077;-64
2021/10/08 01:35:54;;;;;;;33.30;11.37;;;;;;;5.94;100.00;102860.94;2106282;28;20055;-64
2021/10/08 01:36:54;;;;;;;29.88;10.98;;;;;;;5.90;100.00;102865.22;2106723;28;20027;-64
2021/10/08 01:37:54;;;;;;;33.03;11.50;;;;;;;5.89;100.00;102866.06;2106812;28;20053;-64
2021/10/08 01:38:54;;;;;;;35.13;10.80;;;;;;;5.87;100.00;102864.31;2106526;28;20076;-64
2021/10/08 01:39:55;;;;;;;23.37;11.03;;;;;;;5.88;100.00;102864.31;2105706;28;20103;-64
2021/10/08 01:40:55;;;;;;;50.17;13.90;;;;;;;5.89;100.00;102865.22;2105173;28;20098;-64
2021/10/08 01:41:55;;;;;;;48.37;12.43;;;;;;;5.86;100.00;102858.28;2105398;28;20043;-64
2021/10/08 01:42:56;;;;;;;36.73;11.73;;;;;;;5.84;100.00;102867.75;2105462;28;20051;-64
2021/10/08 01:43:56;;;;;;;33.13;11.67;;;;;;;5.84;100.00;102870.34;2097208;28;20524;-65
2021/10/08 01:44:56;;;;;;;50.33;14.70;;;;;;;5.82;100.00;102863.41;2105138;28;20038;-65
2021/10/08 01:45:57;;;;;;;29.43;12.13;;;;;;;5.81;100.00;102857.34;2106188;28;20027;-64
2021/10/08 01:46:57;;;;;;;28.13;12.37;;;;;;;5.82;100.00;102861.69;2105953;28;20228;-64
2021/10/08 01:47:57;;;;;;;38.87;12.60;;;;;;;5.83;100.00;102865.13;2105860;28;20069;-64
2021/10/08 01:48:57;;;;;;;30.13;11.10;;;;;;;5.81;100.00;102859.94;2106023;28;20058;-64
2021/10/08 01:49:58;;;;;;;66.90;13.27;;;;;;;5.82;100.00;102856.50;2106260;28;20535;-64
2021/10/08 01:50:58;;;;;;;53.50;13.57;;;;;;;5.81;100.00;102859.94;2106824;28;20020;-63
2021/10/08 01:52:00;;;;;;;34.63;10.30;;;;;;;5.80;100.00;102864.28;2106585;28;20127;-65
2021/10/08 01:53:00;;;;;;;62.85;13.25;;;;;;;5.79;100.00;102856.47;2106238;28;20012;-64
2021/10/08 01:54:00;;;;;;;46.80;12.93;;;;;;;5.79;100.00;102861.66;2106658;28;20103;-64
2021/10/08 01:55:01;;;;;;;61.30;10.83;;;;;;;5.79;100.00;102856.47;2106067;28;20034;-64
2021/10/08 01:56:01;;;;;;;71.97;13.37;;;;;;;5.76;100.00;102856.44;2106182;28;20032;-65
2021/10/08 01:57:01;;;;;;;74.97;13.27;;;;;;;5.76;100.00;102859.03;2105977;28;20469;-64
2021/10/08 01:58:02;;;;;;;53.77;11.87;;;;;;;5.76;100.00;102859.03;2106480;28;20086;-64
2021/10/08 01:59:02;;;;;;;38.37;11.37;;;;;;;5.74;100.00;102858.13;2106965;28;20277;-64
2021/10/08 02:00:05;;;;;;;41.33;12.10;;;;;;;5.73;100.00;102859.00;2106289;28;20529;-64
2021/10/08 02:01:05;;;;;;;40.00;12.23;;;;;;;5.72;100.00;102859.84;2105452;28;20058;-64
2021/10/08 02:02:05;;;;;;;60.90;13.20;;;;;;;5.73;100.00;102861.56;2105607;28;20487;-65
2021/10/08 02:03:05;;;;;;;65.40;12.50;;;;;;;5.72;100.00;102859.84;2105971;28;20020;-64
2021/10/08 02:04:06;;;;;;;30.73;8.60;;;;;;;5.72;100.00;102860.72;2106306;28;20104;-64
2021/10/08 02:05:06;;;;;;;38.33;10.27;;;;;;;5.71;100.00;102858.13;2105814;28;20302;-64
2021/10/08 02:06:06;;;;;;;78.82;12.73;;;;;;;5.70;100.00;102857.25;2105870;28;20044;-65
2021/10/08 02:07:07;;;;;;;63.80;14.10;;;;;;;5.70;100.00;102853.78;2106185;28;20492;-65
2021/10/08 02:08:07;;;;;;;42.17;11.30;;;;;;;5.70;100.00;102856.34;2106476;28;20020;-65
2021/10/08 02:09:08;;;;;;;66.33;14.13;;;;;;;5.71;100.00;102858.13;2105422;28;20093;-65
2021/10/08 02:10:08;;;;;;;49.30;11.82;;;;;;;5.71;100.00;102858.97;2105989;28;20052;-65
2021/10/08 02:11:09;;;;;;;58.40;11.23;;;;;;;5.72;100.00;102854.66;2106058;28;20073;-65
2021/10/08 02:12:10;;;;;;;68.30;12.23;;;;;;;5.73;100.00;102856.41;2105973;28;20775;-65
2021/10/08 02:13:10;;;;;;;57.70;11.57;;;;;;;5.72;100.00;102860.72;2105913;28;20020;-65
2021/10/08 02:14:10;;;;;;;38.67;9.53;;;;;;;5.72;100.00;102854.66;2097645;28;20055;-65
2021/10/08 02:15:11;;;;;;;68.77;12.47;;;;;;;5.70;100.00;102862.41;2105658;28;20111;-65
2021/10/08 02:16:11;;;;;;;41.67;10.67;;;;;;;5.72;100.00;102859.84;2105920;28;20074;-65
2021/10/08 02:17:11;;;;;;;67.70;12.10;;;;;;;5.72;100.00;102855.56;2106623;28;20024;-66
2021/10/08 02:18:12;;;;;;;28.03;9.37;;;;;;;5.74;100.00;102858.13;2106634;28;20024;-65
2021/10/08 02:19:12;;;;;;;21.92;9.93;;;;;;;5.75;100.00;102854.72;2106616;28;20063;-65
2021/10/08 02:20:12;;;;;;;36.37;11.13;;;;;;;5.77;100.00;102855.56;2105938;28;20046;-66
2021/10/08 02:21:13;;;;;;;29.53;11.13;;;;;;;5.76;100.00;102846.94;2106085;28;20050;-66
2021/10/08 02:22:13;;;;;;;30.63;9.50;;;;;;;5.78;100.00;102857.31;2105944;28;20040;-66
2021/10/08 02:23:13;;;;;;;27.27;10.87;;;;;;;5.77;100.00;102859.03;2097651;28;20040;-64
2021/10/08 02:24:14;;;;;;;42.87;10.73;;;;;;;5.75;100.00;102849.53;2107314;28;20032;-65
2021/10/08 02:25:15;;;;;;;77.70;12.93;;;;;;;5.74;100.00;102850.34;2108045;28;20076;-64
2021/10/08 02:26:16;;;;;;;36.20;11.57;;;;;;;5.73;100.00;102852.09;2108153;28;20024;-65
2021/10/08 02:27:16;;;;;;;46.35;10.75;;;;;;;5.75;100.00;102852.13;2108270;28;20016;-64
2021/10/08 02:28:16;;;;;;;29.23;9.90;;;;;;;5.77;100.00;102856.47;2107570;28;20032;-64
2021/10/08 02:29:16;;;;;;;24.07;10.30;;;;;;;5.77;100.00;102855.56;2107648;28;20024;-66
2021/10/08 02:30:17;;;;;;;32.77;11.30;;;;;;;5.79;100.00;102856.47;2108353;28;20488;-63
2021/10/08 02:31:17;;;;;;;39.50;9.47;;;;;;;5.79;100.00;102851.28;2108104;28;20074;-66
2021/10/08 02:32:18;;;;;;;32.87;10.37;;;;;;;5.79;100.00;102848.69;2107580;28;20093;-66
2021/10/08 02:33:18;;;;;;;37.80;10.43;;;;;;;5.82;100.00;102853.91;2107202;28;20369;-65
2021/10/08 02:34:19;;;;;;;29.77;9.70;;;;;;;5.83;100.00;102854.78;2108223;28;20024;-65
2021/10/08 02:35:19;;;;;;;28.75;9.68;;;;;;;5.81;100.00;102849.56;2108025;28;20035;-65
2021/10/08 02:36:20;;;;;;;33.97;9.50;;;;;;;5.82;100.00;102851.34;2108083;28;20030;-66
2021/10/08 02:37:20;;;;;;;28.83;10.40;;;;;;;5.83;100.00;102847.88;2107703;28;20020;-66
2021/10/08 02:38:20;;;;;;;52.40;10.10;;;;;;;5.83;100.00;102850.47;2108236;28;20028;-65
2021/10/08 02:39:21;;;;;;;29.83;9.18;;;;;;;5.84;100.00;102854.78;2108132;28;20095;-65
2021/10/08 02:40:21;;;;;;;32.17;8.93;;;;;;;5.84;100.00;102853.91;2107767;28;20028;-65
2021/10/08 02:41:22;;;;;;;24.47;9.17;;;;;;;5.85;100.00;102853.94;2107272;28;20020;-66
2021/10/08 02:42:23;;;;;;;34.75;10.13;;;;;;;5.85;100.00;102856.50;2108171;28;20073;-65
2021/10/08 02:43:23;;;;;;;27.33;9.77;;;;;;;5.85;100.00;102848.75;2108036;28;20081;-64
2021/10/08 02:44:24;;;;;;;27.80;10.10;;;;;;;5.81;100.00;102852.16;2108093;28;20043;-65
2021/10/08 02:45:24;;;;;;;23.83;10.20;;;;;;;5.80;100.00;102853.91;2108063;28;20024;-65
2021/10/08 02:46:24;;;;;;;21.43;8.87;;;;;;;5.79;100.00;102846.97;2108125;28;20023;-65
2021/10/08 02:47:24;;;;;;;29.47;10.77;;;;;;;5.76;100.00;102844.38;2108084;28;20031;-64
2021/10/08 02:48:25;;;;;;;38.33;9.43;;;;;;;5.77;100.00;102853.88;2108086;28;20032;-65
2021/10/08 02:49:25;;;;;;;26.93;9.77;;;;;;;5.75;100.00;102855.56;2107907;28;20105;-64
2021/10/08 02:50:26;;;;;;;20.00;9.17;;;;;;;5.74;100.00;102851.22;2107474;28;20533;-66
2021/10/08 02:51:26;;;;;;;37.08;10.63;;;;;;;5.64;100.00;102855.44;2107410;28;20388;-64
2021/10/08 02:52:27;;;;;;;25.03;10.43;;;;;;;5.63;100.00;102856.31;2107979;28;20020;-65
2021/10/08 02:53:27;;;;;;;25.97;9.57;;;;;;;5.64;100.00;102855.44;2107996;28;20042;-65
2021/10/08 02:54:27;;;;;;;27.73;9.70;;;;;;;5.65;100.00;102849.41;2108181;28;20469;-65
2021/10/08 02:55:28;;;;;;;19.83;8.37;;;;;;;5.64;100.00;102852.88;2107909;28;20488;-64
2021/10/08 02:56:29;;;;;;;27.70;10.07;;;;;;;5.62;100.00;102858.88;2108106;28;20016;-65
2021/10/08 02:57:29;;;;;;;26.98;10.02;;;;;;;5.59;100.00;102864.91;2107980;28;20484;-65
2021/10/08 02:58:30;;;;;;;23.17;9.60;;;;;;;5.56;100.00;102862.28;2108038;28;20028;-64
2021/10/08 02:59:30;;;;;;;29.17;8.60;;;;;;;5.54;100.00;102857.06;2107855;28;20035;-64
2021/10/08 03:00:31;;;;;;;36.97;11.63;;;;;;;5.52;100.00;102852.72;2107088;28;20384;-65
2021/10/08 03:01:31;;;;;;;40.57;10.50;;;;;;;5.48;100.00;102861.31;2098580;28;20417;-65
2021/10/08 03:02:31;;;;;;;24.27;9.57;;;;;;;5.48;100.00;102859.56;2107133;28;20294;-64
2021/10/08 03:03:32;;;;;;;30.80;9.20;;;;;;;5.46;100.00;102856.13;2108033;28;20060;-65
2021/10/08 03:04:32;;;;;;;29.07;10.47;;;;;;;5.46;100.00;102857.84;2107784;28;20020;-65
2021/10/08 03:05:32;;;;;;;21.93;8.37;;;;;;;5.46;100.00;102869.06;2107906;28;20024;-66
2021/10/08 03:06:32;;;;;;;28.90;9.67;;;;;;;5.46;100.00;102863.00;2107913;28;20077;-64
2021/10/08 03:07:33;;;;;;;32.00;10.30;;;;;;;5.45;100.00;102858.69;2107948;28;20028;-65
2021/10/08 03:08:33;;;;;;;52.00;10.10;;;;;;;5.45;100.00;102863.88;2107845;28;20024;-65
2021/10/08 03:09:33;;;;;;;29.20;8.20;;;;;;;5.46;100.00;102857.84;2107892;28;20032;-65
2021/10/08 03:10:34;;;;;;;30.20;9.10;;;;;;;5.44;100.00;102865.56;2107993;28;20024;-66
2021/10/08 03:11:36;;;;;;;42.40;9.30;;;;;;;5.45;100.00;102866.47;2107959;28;20024;-65
2021/10/08 03:12:37;;;;;;;39.78;10.20;;;;;;;5.45;100.00;102861.28;2107974;28;20485;-66
2021/10/08 03:13:37;;;;;;;30.90;9.23;;;;;;;5.40;100.00;102858.63;2107664;28;20031;-66
2021/10/08 03:14:37;;;;;;;33.03;8.87;;;;;;;5.36;100.00;102852.56;2107958;28;20496;-65
2021/10/08 03:15:37;;;;;;;37.80;11.23;;;;;;;5.39;100.00;102857.78;2107812;28;20431;-64
2021/10/08 03:16:37;;;;;;;58.53;9.97;;;;;;;5.43;100.00;102855.22;2107829;28;20020;-65
2021/10/08 03:17:38;;;;;;;31.17;9.97;;;;;;;5.41;100.00;102861.25;2107197;28;20027;-65
2021/10/08 03:18:38;;;;;;;28.27;9.47;;;;;;;5.39;100.00;102847.41;2107348;28;20477;-64
2021/10/08 03:19:38;;;;;;;34.33;8.90;;;;;;;5.43;100.00;102865.59;2107839;28;20381;-64
2021/10/08 03:20:39;;;;;;;34.97;9.13;;;;;;;5.42;100.00;102864.72;2107933;28;20027;-65
2021/10/08 03:21:39;;;;;;;34.33;9.63;;;;;;;5.39;100.00;102860.38;2107918;28;20020;-65
2021/10/08 03:22:40;;;;;;;29.23;9.43;;;;;;;5.38;100.00;102870.69;2107947;28;20020;-66
2021/10/08 03:23:40;;;;;;;40.30;9.98;;;;;;;5.38;100.00;102862.94;2107831;28;20023;-65
2021/10/08 03:24:41;;;;;;;21.47;8.33;;;;;;;5.40;100.00;102864.69;2107177;28;20057;-66
2021/10/08 03:25:41;;;;;;;21.77;9.77;;;;;;;5.43;100.00;102868.19;2107191;28;20082;-64
2021/10/08 03:26:41;;;;;;;29.17;9.23;;;;;;;5.41;100.00;102858.66;2107943;28;20505;-65
2021/10/08 03:27:42;;;;;;;23.17;8.40;;;;;;;5.44;100.00;102859.56;2107866;28;20020;-65
2021/10/08 03:28:42;;;;;;;39.15;9.73;;;;;;;5.44;100.00;102852.63;2107877;28;20020;-65
2021/10/08 03:29:43;;;;;;;29.27;10.10;;;;;;;5.41;100.00;102861.25;2107855;28;20012;-65
2021/10/08 03:30:43;;;;;;;48.07;10.90;;;;;;;5.37;100.00;102863.78;2107793;28;20051;-65
2021/10/08 03:31:43;;;;;;;56.10;11.37;;;;;;;5.34;100.00;102859.41;2107698;28;20066;-64
2021/10/08 03:32:44;;;;;;;37.63;11.03;;;;;;;5.33;100.00;102857.69;2107621;28;20050;-64
2021/10/08 03:33:44;;;;;;;46.67;10.25;;;;;;;5.33;100.00;102862.88;2107280;28;20458;-64
2021/10/08 03:34:44;;;;;;;56.00;11.20;;;;;;;5.34;100.00;102864.59;2107618;28;20019;-64
2021/10/08 03:35:45;;;;;;;28.27;10.03;;;;;;;5.35;100.00;102861.19;2106643;28;20027;-65
2021/10/08 03:37:52;;;;;;;42.23;9.63;;;;;;;5.34;100.00;102864.59;2107725;28;20028;-65
2021/10/08 03:38:52;;;;;;;33.88;8.98;;;;;;;5.35;100.00;102865.47;2106884;28;20024;-66
2021/10/08 03:39:53;;;;;;;26.40;9.17;;;;;;;5.37;100.00;102859.47;2098165;28;20028;-65
2021/10/08 03:41:16;;;;;;;56.80;12.40;;;;;;;5.37;100.00;102867.22;2106188;28;20659;-64
2021/10/08 03:42:17;;;;;;;47.72;11.18;;;;;;;5.35;100.00;102861.19;2107028;28;20040;-65
2021/10/08 03:43:17;;;;;;;62.70;11.00;;;;;;;5.33;100.00;102868.03;2107679;28;20084;-65
2021/10/08 03:44:18;;;;;;;45.63;11.03;;;;;;;5.34;100.00;102866.34;2107250;28;20485;-64
2021/10/08 03:45:19;;;;;;;31.38;10.07;;;;;;;5.36;100.00;102869.81;2107472;28;20381;-65
2021/10/08 03:46:19;;;;;;;40.70;9.57;;;;;;;5.37;100.00;102864.66;2107543;28;20447;-65
2021/10/08 03:47:26;;;;;;;28.23;9.37;;;;;;;5.40;100.00;102863.81;2107181;28;20270;-66
2021/10/08 03:48:48;;;;;;;44.75;9.70;;;;;;;5.40;100.00;102864.69;2107547;28;20058;-66
2021/10/08 03:49:51;;;;;;;34.33;9.65;;;;;;;5.43;100.00;102870.75;2107514;28;20024;-66
2021/10/08 03:50:51;;;;;;;26.65;9.18;;;;;;;5.43;100.00;102874.22;2106950;28;20031;-66
2021/10/08 03:51:53;;;;;;;39.23;9.63;;;;;;;5.43;100.00;102863.84;2107059;28;20086;-65
2021/10/08 03:52:53;;;;;;;54.38;11.38;;;;;;;5.41;100.00;102873.34;2107603;28;20435;-65
2021/10/08 03:53:54;;;;;;;38.47;9.47;;;;;;;5.41;100.00;102871.59;2107640;28;20081;-64
2021/10/08 03:54:54;;;;;;;38.87;9.40;;;;;;;5.41;100.00;102869.00;2107648;28;20647;-65
2021/10/08 03:55:55;;;;;;;47.80;10.43;;;;;;;5.43;100.00;102863.00;2107454;28;20028;-65
2021/10/08 03:56:55;;;;;;;36.47;9.75;;;;;;;5.44;100.00;102872.50;2107558;28;20039;-65
2021/10/08 03:57:55;;;;;;;54.73;10.57;;;;;;;5.43;100.00;102868.19;2107419;28;20031;-65
2021/10/08 03:58:57;;;;;;;45.10;10.77;;;;;;;5.43;100.00;102869.03;2107384;28;20433;-65
2021/10/08 03:59:58;;;;;;;26.48;9.80;;;;;;;5.43;100.00;102865.59;2107376;28;20031;-65
2021/10/08 04:00:58;;;;;;;73.43;13.00;;;;;;;5.37;100.00;102864.66;2107552;28;20076;-66
2021/10/08 04:01:58;;;;;;;33.13;10.43;;;;;;;5.37;100.00;102862.06;2107413;28;20023;-66
2021/10/08 04:02:58;;;;;;;34.87;9.97;;;;;;;5.37;100.00;102862.06;2107518;28;20020;-64
2021/10/08 04:04:01;;;;;;;30.10;10.20;;;;;;;5.43;100.00;102870.75;2107512;28;20031;-64
2021/10/08 04:05:01;;;;;;;25.10;10.23;;;;;;;5.39;100.00;102868.13;2107535;28;20020;-65
2021/10/08 04:06:01;;;;;;;49.77;9.97;;;;;;;5.37;100.00;102867.22;2107455;28;20492;-65
2021/10/08 04:07:01;;;;;;;37.93;10.00;;;;;;;5.36;100.00;102862.91;2107156;28;20038;-65
2021/10/08 04:08:02;;;;;;;29.77;8.87;;;;;;;5.37;100.00;102864.66;2107460;28;20057;-65
2021/10/08 04:09:05;;;;;;;53.03;11.00;;;;;;;5.33;100.00;102872.38;2107506;28;20035;-65
2021/10/08 04:10:05;;;;;;;37.28;10.38;;;;;;;5.33;100.00;102865.47;2106849;28;20027;-64
2021/10/08 04:11:06;;;;;;;45.33;11.23;;;;;;;5.34;100.00;102869.78;2106374;28;20066;-66
2021/10/08 04:12:06;;;;;;;41.27;11.57;;;;;;;5.35;100.00;102870.66;2106312;28;20491;-66
2021/10/08 04:13:06;;;;;;;26.47;10.23;;;;;;;5.36;100.00;102867.22;2105859;28;20068;-65
2021/10/08 04:14:08;;;;;;;26.17;8.70;;;;;;;5.35;100.00;102876.72;2106243;28;20039;-65
2021/10/08 04:15:08;;;;;;;;;;;;;;;5.38;100.00;102870.69;2107796;28;20522;-66
2021/10/08 04:16:08;;;;;;;52.08;10.23;;;;;;;5.37;100.00;102875.00;2106805;28;19908;-66
2021/10/08 04:17:09;;;;;;;32.17;10.03;;;;;;;5.37;100.00;102877.59;2107046;28;20086;-65
2021/10/08 04:18:11;;;;;;;34.37;9.53;;;;;;;5.37;100.00;102867.22;2107159;28;20107;-65
2021/10/08 04:19:11;;;;;;;37.50;10.25;;;;;;;5.43;100.00;102881.13;2106246;28;20023;-65
2021/10/08 04:20:11;;;;;;;31.73;8.63;;;;;;;5.44;100.00;102880.25;2105921;28;20512;-66
2021/10/08 04:21:12;;;;;;;29.40;9.50;;;;;;;5.43;100.00;102879.38;2106590;28;20545;-64
2021/10/08 04:22:12;;;;;;;28.38;9.45;;;;;;;5.43;100.00;102883.72;2106855;28;20397;-67
2021/10/08 04:23:13;;;;;;;32.80;9.67;;;;;;;5.39;100.00;102875.91;2107071;28;20032;-65
2021/10/08 04:24:13;;;;;;;31.05;10.38;;;;;;;5.36;100.00;102877.56;2107132;28;20452;-67
2021/10/08 04:25:14;;;;;;;44.30;8.60;;;;;;;5.35;100.00;102876.72;2106536;28;20039;-68
2021/10/08 04:26:14;;;;;;;23.43;9.73;;;;;;;5.36;100.00;102878.44;2106581;28;20047;-67
2021/10/08 04:27:14;;;;;;;29.30;8.53;;;;;;;5.41;100.00;102881.09;2106498;28;20016;-68
2021/10/08 04:28:15;;;;;;;36.87;10.10;;;;;;;5.41;100.00;102889.72;2097804;28;20029;-67
2021/10/08 04:29:15;;;;;;;58.20;12.17;;;;;;;5.40;100.00;102890.59;2105761;28;20050;-67
2021/10/08 04:30:15;;;;;;;51.93;11.63;;;;;;;5.40;100.00;102892.28;2106210;28;20484;-68
2021/10/08 04:31:15;;;;;;;30.53;8.57;;;;;;;5.40;100.00;102895.75;2106511;28;20053;-68
2021/10/08 04:32:16;;;;;;;40.60;9.70;;;;;;;5.36;100.00;102893.97;2106797;28;20482;-68
2021/10/08 04:33:19;;;;;;;31.67;8.23;;;;;;;5.35;100.00;102892.25;2106996;28;20047;-68
2021/10/08 04:34:19;;;;;;;28.58;8.75;;;;;;;5.37;100.00;102890.53;2107260;28;20020;-67
2021/10/08 04:35:20;;;;;;;41.23;8.97;;;;;;;5.37;100.00;102890.53;2106605;28;20015;-66
2021/10/08 04:36:20;;;;;;;51.13;9.97;;;;;;;5.37;100.00;102885.34;2107111;28;20047;-67
2021/10/08 04:37:20;;;;;;;62.57;11.43;;;;;;;5.31;100.00;102885.31;2107056;28;20028;-67
2021/10/08 04:38:20;;;;;;;34.93;9.40;;;;;;;5.31;100.00;102885.31;2106511;28;20027;-67